TimeCST,TemperatureF,Dew PointF,Humidity,Sea Level PressureIn,VisibilityMPH,Wind Direction,Wind SpeedMPH,Gust SpeedMPH,PrecipitationIn,Events,Conditions,WindDirDegrees,DateUTC
12:53 AM,50.0,39.9,68,30.19,10.0,Calm,Calm,-,N/A,,Clear,0,2013-02-10 06:53:00
1:53 AM,50.0,41.0,71,30.18,10.0,Calm,Calm,-,N/A,,Clear,0,2013-02-10 07:53:00
2:53 AM,50.0,42.1,74,30.18,10.0,Calm,Calm,-,N/A,,Clear,0,2013-02-10 08:53:00
3:53 AM,48.9,41.0,74,30.19,10.0,Calm,Calm,-,N/A,,Clear,0,2013-02-10 09:53:00
4:53 AM,48.9,39.9,71,30.19,10.0,Calm,Calm,-,N/A,,Clear,0,2013-02-10 10:53:00
5:53 AM,48.0,39.9,74,30.19,10.0,Variable,3.5,-,N/A,,Clear,0,2013-02-10 11:53:00
6:53 AM,48.9,41.0,74,30.18,10.0,Variable,3.5,-,N/A,,Clear,0,2013-02-10 12:53:00
7:36 AM,51.8,42.8,71,30.20,10.0,Variable,3.5,-,N/A,,Mostly Cloudy,0,2013-02-10 13:36:00
7:53 AM,54.0,45.0,72,30.21,10.0,Variable,4.6,-,N/A,,Overcast,0,2013-02-10 13:53:00
8:00 AM,53.6,44.6,72,30.20,10.0,SSE,5.8,-,N/A,,Overcast,150,2013-02-10 14:00:00
8:53 AM,59.0,48.0,67,30.19,10.0,SE,10.4,21.9,N/A,,Mostly Cloudy,140,2013-02-10 14:53:00
9:53 AM,62.1,50.0,65,30.19,10.0,SSE,10.4,19.6,N/A,,Overcast,150,2013-02-10 15:53:00
10:14 AM,62.6,50.0,63,30.19,10.0,SSE,10.4,25.3,N/A,,Overcast,160,2013-02-10 16:14:00
10:53 AM,64.0,52.0,65,30.17,10.0,SSE,9.2,20.7,N/A,,Overcast,160,2013-02-10 16:53:00
11:00 AM,64.4,51.8,64,30.16,10.0,SSE,8.1,19.6,N/A,,Overcast,160,2013-02-10 17:00:00
11:53 AM,70.0,55.0,59,30.12,10.0,SSE,15.0,23.0,N/A,,Overcast,160,2013-02-10 17:53:00
12:53 PM,71.1,55.9,59,30.08,10.0,South,17.3,25.3,N/A,,Overcast,170,2013-02-10 18:53:00
1:53 PM,72.0,55.9,57,30.06,10.0,South,15.0,28.8,N/A,,Mostly Cloudy,170,2013-02-10 19:53:00
2:53 PM,73.0,57.0,57,30.03,10.0,South,13.8,24.2,N/A,,Mostly Cloudy,180,2013-02-10 20:53:00
3:53 PM,72.0,57.0,59,30.04,10.0,South,11.5,21.9,N/A,,Mostly Cloudy,180,2013-02-10 21:53:00
4:44 PM,71.6,57.2,60,30.04,10.0,South,9.2,17.3,N/A,Thunderstorm,Thunderstorm,170,2013-02-10 22:44:00
4:53 PM,70.0,59.0,68,30.03,10.0,South,13.8,19.6,0.00,Rain-Thunderstorm,Light Thunderstorms and Rain,180,2013-02-10 22:53:00
5:09 PM,69.8,59.0,68,30.03,10.0,South,9.2,19.6,0.00,,Overcast,170,2013-02-10 23:09:00
5:37 PM,69.8,59.0,68,30.03,10.0,South,10.4,23.0,0.00,Thunderstorm,Thunderstorm,180,2013-02-10 23:37:00
5:53 PM,69.1,59.0,70,30.04,10.0,South,11.5,19.6,0.00,,Overcast,180,2013-02-10 23:53:00
6:12 PM,69.8,59.0,68,30.03,10.0,South,10.4,17.3,N/A,Thunderstorm,Thunderstorm,180,2013-02-11 00:12:00
6:53 PM,69.1,59.0,70,30.02,10.0,South,10.4,20.7,N/A,,Overcast,170,2013-02-11 00:53:00
7:30 PM,66.2,60.8,83,30.02,10.0,South,12.7,19.6,0.00,Rain,Light Rain,190,2013-02-11 01:30:00
7:39 PM,66.2,60.8,83,30.02,10.0,South,12.7,19.6,0.00,Thunderstorm,Thunderstorm,180,2013-02-11 01:39:00
7:53 PM,66.9,60.1,79,30.02,10.0,South,19.6,25.3,0.00,Rain-Thunderstorm,Light Thunderstorms and Rain,190,2013-02-11 01:53:00
8:06 PM,64.4,59.0,83,30.12,1.0,NNW,29.9,44.9,0.31,Rain-Thunderstorm,Heavy Thunderstorms and Rain,330,2013-02-11 02:06:00
8:10 PM,60.8,59.0,94,30.08,0.5,North,17.3,44.9,0.62,Fog-Rain-Thunderstorm,Heavy Thunderstorms and Rain,360,2013-02-11 02:10:00
8:19 PM,60.8,60.8,100,30.13,0.8,WSW,4.6,23.0,0.93,Rain-Thunderstorm,Heavy Thunderstorms and Rain,250,2013-02-11 02:19:00
8:32 PM,60.8,59.0,94,30.11,1.0,NE,3.5,-,1.23,Rain-Thunderstorm,Heavy Thunderstorms and Rain,40,2013-02-11 02:32:00
8:46 PM,60.8,57.2,88,30.10,1.0,North,9.2,-,1.52,Rain-Thunderstorm,Heavy Thunderstorms and Rain,10,2013-02-11 02:46:00
8:53 PM,60.1,59.0,96,30.10,1.2,NNE,5.8,-,1.66,Rain-Thunderstorm,Heavy Thunderstorms and Rain,20,2013-02-11 02:53:00
9:08 PM,60.8,57.2,88,30.08,3.0,NNE,5.8,-,0.14,Rain-Thunderstorm,Thunderstorms and Rain,30,2013-02-11 03:08:00
9:18 PM,60.8,59.0,94,30.09,10.0,Variable,3.5,-,0.14,Rain-Thunderstorm,Light Thunderstorms and Rain,0,2013-02-11 03:18:00
9:53 PM,61.0,57.9,90,30.09,4.0,Variable,5.8,-,0.18,Rain-Thunderstorm,Heavy Thunderstorms and Rain,0,2013-02-11 03:53:00
10:09 PM,60.8,59.0,94,30.09,2.0,Calm,Calm,-,0.13,Rain-Thunderstorm,Heavy Thunderstorms and Rain,0,2013-02-11 04:09:00
10:16 PM,60.8,59.0,94,30.09,4.0,East,5.8,-,0.15,Rain-Thunderstorm,Light Thunderstorms and Rain,80,2013-02-11 04:16:00
10:53 PM,60.1,57.9,93,30.07,10.0,Variable,4.6,-,0.26,Thunderstorm,Thunderstorm,0,2013-02-11 04:53:00
11:07 PM,60.8,57.2,88,30.06,6.0,ENE,8.1,-,0.02,Rain-Thunderstorm,Thunderstorms and Rain,70,2013-02-11 05:07:00
11:53 PM,60.1,57.9,93,30.08,1.5,North,5.8,-,0.25,Rain-Thunderstorm,Heavy Thunderstorms and Rain,360,2013-02-11 05:53:00